createdAt,value
2018-06-22T00:02:33.248Z,1.90
2018-06-22T00:06:27.636Z,2.10
2018-06-22T00:10:21.728Z,2.00
2018-06-22T00:14:15.722Z,1.77
2018-06-22T00:18:09.690Z,1.30
2018-06-22T00:30:46.178Z,2.30
2018-06-22T00:34:40.283Z,1.70
2018-06-22T00:38:34.339Z,1.70
2018-06-22T00:42:28.276Z,2.00
2018-06-22T00:46:22.317Z,1.67
2018-06-22T00:50:16.451Z,1.77
2018-06-22T00:54:16.071Z,1.93
2018-06-22T00:58:10.059Z,1.63
2018-06-22T01:02:04.025Z,2.03
2018-06-22T01:05:58.143Z,1.80
2018-06-22T01:09:52.418Z,1.30
2018-06-22T01:13:46.407Z,1.97
2018-06-22T01:17:40.420Z,1.90
2018-06-22T01:21:34.497Z,1.97
2018-06-22T01:25:30.368Z,2.07
2018-06-22T01:29:31.048Z,1.90
2018-06-22T01:33:25.244Z,1.80
2018-06-22T01:37:19.310Z,1.83
2018-06-22T01:41:13.375Z,2.70
2018-06-22T01:45:07.500Z,2.00
2018-06-22T01:49:01.985Z,2.30
2018-06-22T01:52:55.869Z,2.13
2018-06-22T01:56:51.080Z,2.00
2018-06-22T02:00:48.791Z,2.00
2018-06-22T02:04:52.278Z,1.60
2018-06-22T02:08:46.449Z,2.27
2018-06-22T02:12:40.568Z,2.20
2018-06-22T02:16:35.456Z,2.70
2018-06-22T02:20:29.516Z,1.83
2018-06-22T02:24:23.820Z,1.77
2018-06-22T02:28:17.614Z,2.10
2018-06-22T02:32:11.471Z,2.07
2018-06-22T02:36:05.692Z,2.17
2018-06-22T02:40:00.809Z,1.70
2018-06-22T02:43:54.402Z,1.77
2018-06-22T02:47:48.414Z,2.40
2018-06-22T02:51:43.400Z,1.93
2018-06-22T02:55:37.527Z,1.90
2018-06-22T02:59:31.668Z,2.10
2018-06-22T03:03:26.300Z,2.77
2018-06-22T03:07:21.669Z,2.10
2018-06-22T03:11:15.798Z,1.60
2018-06-22T03:15:09.839Z,1.90
2018-06-22T03:19:04.254Z,1.60
2018-06-22T03:22:58.360Z,2.00
2018-06-22T03:26:52.311Z,2.80
2018-06-22T03:30:46.614Z,1.90
2018-06-22T03:34:40.555Z,2.30
2018-06-22T03:38:35.301Z,1.75
2018-06-22T03:42:29.489Z,2.33
2018-06-22T03:46:23.558Z,2.10
2018-06-22T03:50:17.674Z,2.00
2018-06-22T03:54:11.626Z,1.93
2018-06-22T03:58:05.907Z,2.17
2018-06-22T04:02:00.002Z,2.00
2018-06-22T04:05:54.180Z,2.10
2018-06-22T04:09:47.830Z,1.97
2018-06-22T04:13:42.109Z,1.90
2018-06-22T04:17:42.346Z,2.20
2018-06-22T04:21:36.458Z,1.90
2018-06-22T04:25:30.576Z,2.00
2018-06-22T04:29:24.971Z,2.40
2018-06-22T04:33:19.317Z,2.03
2018-06-22T04:37:13.310Z,1.67
2018-06-22T04:41:08.178Z,2.40
2018-06-22T04:45:01.678Z,2.43
2018-06-22T04:48:55.668Z,2.30
2018-06-22T04:52:49.782Z,1.77
2018-06-22T04:56:43.721Z,2.43
2018-06-22T05:00:37.769Z,1.80
2018-06-22T05:04:31.879Z,1.93
2018-06-22T05:08:25.983Z,1.77
2018-06-22T05:12:19.955Z,1.90
2018-06-22T05:16:15.307Z,1.97
2018-06-22T05:20:09.563Z,1.67
2018-06-22T05:24:03.942Z,3.53
2018-06-22T05:27:58.057Z,2.00
2018-06-22T05:31:52.316Z,3.45
2018-06-22T05:35:46.319Z,2.70
2018-06-22T05:39:43.062Z,2.07
2018-06-22T05:43:38.056Z,2.30
2018-06-22T05:47:31.608Z,2.27
2018-06-22T05:51:25.803Z,2.60
2018-06-22T05:55:19.830Z,5.12
2018-06-22T05:59:15.758Z,2.40
2018-06-22T06:03:09.793Z,2.73
2018-06-22T06:07:03.842Z,1.80
2018-06-22T06:10:58.487Z,2.43
2018-06-22T06:14:52.495Z,2.27
2018-06-22T06:18:46.922Z,2.00
2018-06-22T06:22:41.097Z,2.13
2018-06-22T06:26:35.431Z,2.23
2018-06-22T06:30:31.739Z,2.17
2018-06-22T06:34:25.865Z,2.07
2018-06-22T06:38:20.075Z,2.60
2018-06-22T06:42:17.066Z,2.60
2018-06-22T06:50:24.971Z,3.57
2018-06-22T06:54:19.508Z,2.70
2018-06-22T06:58:13.896Z,2.90
2018-06-22T07:02:09.267Z,2.57
2018-06-22T07:06:04.133Z,2.53
2018-06-22T07:10:00.198Z,2.37
2018-06-22T07:13:55.453Z,2.60
2018-06-22T07:17:50.890Z,3.67
2018-06-22T07:25:49.409Z,2.60
2018-06-22T07:29:45.607Z,2.90
2018-06-22T07:33:40.269Z,2.58
2018-06-22T07:37:36.848Z,3.27
2018-06-22T07:41:33.659Z,6.57
2018-06-22T07:45:27.538Z,3.53
2018-06-22T07:49:22.038Z,2.67
2018-06-22T07:53:16.723Z,2.90
2018-06-22T07:57:11.042Z,3.20
2018-06-22T08:01:06.714Z,2.83
2018-06-22T08:05:05.008Z,3.02
2018-06-22T08:08:59.610Z,3.33
2018-06-22T08:13:01.352Z,2.97
2018-06-22T08:16:55.976Z,3.50
2018-06-22T08:20:51.138Z,2.90
2018-06-22T08:28:38.897Z,3.20
2018-06-22T08:32:40.363Z,2.90
2018-06-22T08:36:34.377Z,2.90
2018-06-22T08:59:59.116Z,2.57
2018-06-22T09:03:59.800Z,2.60
2018-06-22T09:07:59.264Z,2.40
2018-06-22T09:11:53.850Z,3.83
2018-06-22T09:15:48.894Z,5.13
2018-06-22T09:20:02.044Z,4.90
2018-06-22T09:23:59.277Z,4.17
2018-06-22T09:28:07.387Z,2.93
2018-06-22T09:32:21.509Z,2.97
2018-06-22T09:36:16.502Z,3.00
2018-06-22T09:40:13.445Z,3.07
2018-06-22T09:44:07.517Z,3.00
2018-06-22T09:48:01.511Z,3.52
2018-06-22T09:51:56.392Z,2.70
2018-06-22T09:55:51.296Z,2.80
2018-06-22T10:05:13.755Z,2.60
2018-06-22T10:09:11.741Z,2.80
2018-06-22T10:13:06.302Z,2.43
2018-06-22T10:17:00.868Z,2.70
2018-06-22T10:21:00.990Z,2.43
2018-06-22T10:24:56.655Z,2.67
2018-06-22T10:28:51.997Z,2.50
2018-06-22T10:32:46.138Z,2.60
2018-06-22T10:36:40.536Z,2.85
2018-06-22T10:40:34.638Z,3.30
2018-06-22T10:44:28.432Z,2.70
2018-06-22T11:15:37.609Z,1.83
2018-06-22T11:23:27.760Z,2.37
2018-06-22T11:27:22.678Z,2.60
2018-06-22T12:02:34.072Z,1.70
2018-06-22T12:35:35.262Z,1.90
2018-06-22T12:39:31.711Z,2.06
2018-06-22T12:43:26.557Z,1.85
2018-06-22T12:47:20.337Z,2.37
2018-06-22T12:51:14.516Z,1.70
2018-06-22T12:55:08.720Z,2.17
2018-06-22T12:59:03.260Z,1.80
2018-06-22T13:02:57.295Z,1.67
2018-06-22T13:06:51.256Z,1.62
2018-06-22T13:10:45.405Z,1.80
2018-06-22T13:14:40.386Z,1.80
2018-06-22T14:08:24.384Z,1.20
2018-06-22T14:12:18.619Z,1.47
2018-06-22T14:16:12.992Z,1.37
2018-06-22T14:20:07.207Z,1.47
2018-06-22T14:24:01.473Z,1.50
2018-06-22T14:27:56.499Z,1.27
2018-06-22T14:31:50.603Z,1.43
2018-06-22T14:35:45.148Z,1.07
2018-06-22T14:39:39.869Z,1.10
2018-06-22T14:43:34.200Z,1.90
2018-06-22T14:47:28.675Z,1.37
2018-06-22T14:51:23.344Z,1.80
2018-06-22T14:55:24.109Z,1.23
2018-06-22T14:59:23.562Z,1.27
2018-06-22T15:03:23.205Z,1.57
2018-06-22T15:07:22.904Z,0.90
2018-06-22T15:11:17.189Z,2.50
2018-06-22T15:15:11.338Z,1.70
2018-06-22T15:19:05.416Z,1.27
2018-06-22T15:23:00.166Z,2.93
2018-06-22T15:26:54.543Z,1.17
2018-06-22T15:30:48.622Z,1.30
2018-06-22T15:34:47.820Z,1.43
2018-06-22T15:38:47.175Z,1.20
2018-06-22T15:42:46.812Z,1.90
2018-06-22T15:46:45.454Z,1.40
2018-06-22T15:50:45.005Z,1.60
2018-06-22T15:54:45.396Z,1.30
2018-06-22T15:58:39.673Z,1.50
2018-06-22T16:02:39.138Z,1.70
2018-06-22T16:06:33.226Z,1.77
2018-06-22T16:10:27.441Z,1.70
2018-06-22T16:14:26.690Z,1.60
2018-06-22T16:18:26.703Z,2.03
2018-06-22T16:22:30.250Z,1.17
2018-06-22T16:26:29.736Z,1.43
2018-06-22T16:30:24.499Z,1.50
2018-06-22T16:34:18.501Z,1.40
2018-06-22T16:38:12.683Z,1.47
2018-06-22T16:42:06.801Z,1.30
2018-06-22T16:46:01.051Z,1.40
2018-06-22T16:49:55.198Z,1.60
2018-06-22T16:53:49.171Z,1.12
2018-06-22T16:57:43.276Z,1.73
2018-06-22T17:01:37.402Z,1.30
2018-06-22T17:05:31.613Z,1.50
2018-06-22T17:09:31.182Z,1.30
2018-06-22T17:13:30.373Z,1.80
2018-06-22T17:17:29.760Z,1.50
2018-06-22T17:21:23.760Z,1.43
2018-06-22T17:25:17.797Z,1.90
2018-06-22T17:29:11.886Z,1.43
2018-06-22T17:33:06.694Z,1.80
2018-06-22T17:37:01.376Z,1.60
2018-06-22T17:40:55.720Z,1.73
2018-06-22T17:44:50.331Z,1.92
2018-06-22T17:48:45.211Z,1.50
2018-06-22T17:52:39.811Z,1.83
2018-06-22T17:56:33.910Z,1.40
2018-06-22T18:00:33.153Z,1.90
2018-06-22T18:04:32.498Z,1.83
2018-06-22T18:08:32.093Z,3.63
2018-06-22T18:12:31.426Z,1.80
2018-06-22T18:16:25.527Z,1.80
2018-06-22T18:20:19.617Z,1.50
2018-06-22T18:24:13.579Z,2.70
2018-06-22T18:28:07.729Z,2.37
2018-06-22T18:32:01.892Z,2.03
2018-06-22T18:35:56.182Z,1.83
2018-06-22T18:39:50.300Z,1.80
2018-06-22T18:43:49.608Z,1.50
2018-06-22T18:47:43.310Z,1.67
2018-06-22T18:51:37.356Z,2.07
2018-06-22T18:55:37.091Z,2.57
2018-06-22T18:59:36.593Z,2.00
2018-06-22T19:03:35.827Z,1.77
2018-06-22T19:07:29.866Z,2.30
2018-06-22T19:11:24.105Z,1.80
2018-06-22T19:15:18.794Z,2.40
2018-06-22T19:19:13.594Z,1.80
2018-06-22T19:23:07.941Z,2.03
2018-06-22T19:27:02.975Z,1.63
2018-06-22T19:30:56.944Z,2.07
2018-06-22T19:34:56.225Z,1.87
2018-06-22T19:38:50.866Z,1.70
2018-06-22T19:42:45.262Z,2.13
2018-06-22T19:46:44.400Z,2.30
2018-06-22T19:50:43.747Z,2.27
2018-06-22T19:54:37.719Z,1.90
2018-06-22T19:58:31.707Z,2.30
2018-06-22T20:02:25.714Z,2.43
2018-06-22T20:06:19.716Z,2.50
2018-06-22T20:10:13.968Z,2.33
2018-06-22T20:14:07.953Z,2.80
2018-06-22T20:18:02.069Z,2.73
2018-06-22T20:21:56.434Z,1.93
2018-06-22T20:25:50.911Z,1.93
2018-06-22T20:29:44.841Z,2.33
2018-06-22T20:33:38.866Z,2.90
2018-06-22T20:37:38.623Z,2.50
2018-06-22T20:41:38.035Z,2.50
2018-06-22T20:45:37.310Z,2.37
2018-06-22T20:49:36.893Z,2.30
2018-06-22T20:53:30.889Z,2.40
2018-06-22T20:57:24.960Z,2.57
2018-06-22T21:01:19.065Z,2.57
2018-06-22T21:05:12.983Z,2.37
2018-06-22T21:09:08.020Z,2.80
2018-06-22T21:13:02.099Z,2.07
2018-06-22T21:16:55.818Z,2.67
2018-06-22T21:20:55.113Z,2.70
2018-06-22T21:24:49.214Z,2.80
2018-06-22T21:28:48.534Z,2.90
2018-06-22T21:32:48.122Z,2.50
2018-06-22T21:37:50.767Z,2.30
2018-06-22T21:41:45.093Z,2.23
2018-06-22T21:45:38.659Z,3.53
2018-06-22T21:49:32.798Z,2.70
2018-06-22T21:53:26.855Z,2.33
2018-06-22T21:57:21.313Z,2.27
2018-06-22T22:01:15.249Z,2.17
2018-06-22T22:05:09.300Z,2.47
2018-06-22T22:09:03.355Z,2.33
2018-06-22T22:12:58.193Z,2.23
2018-06-22T22:16:53.184Z,2.60
2018-06-22T22:20:47.247Z,2.40
2018-06-22T22:24:41.787Z,2.43
2018-06-22T22:28:35.911Z,2.77
2018-06-22T22:32:29.886Z,2.90
2018-06-22T22:36:24.238Z,2.77
2018-06-22T22:40:18.351Z,2.77
2018-06-22T22:44:13.004Z,2.60
2018-06-22T22:48:06.610Z,3.00
2018-06-22T22:52:00.740Z,2.70
2018-06-22T22:55:55.011Z,2.73
2018-06-22T22:59:49.031Z,2.80
2018-06-22T23:03:42.971Z,2.87
2018-06-22T23:07:36.741Z,2.33
2018-06-22T23:11:30.419Z,3.17
2018-06-22T23:15:24.664Z,2.87
2018-06-22T23:19:18.547Z,2.90
2018-06-22T23:23:23.888Z,2.37
2018-06-22T23:27:18.085Z,4.67
2018-06-22T23:31:12.620Z,2.67
2018-06-22T23:35:06.598Z,2.93
2018-06-22T23:39:00.746Z,3.17
2018-06-22T23:42:54.914Z,2.67
2018-06-22T23:46:48.979Z,2.97
2018-06-22T23:50:42.899Z,2.83
2018-06-22T23:54:36.840Z,2.83
2018-06-22T23:58:30.856Z,2.97
